sensor_id;sensor_type;location;lat;lon;timestamp;P1;durP1;ratioP1;P2;durP2;ratioP2
33505;SDS011;19843;51.040;13.782;2022-12-07T00:02:19;1999.90;;;999.90;;
33505;SDS011;19843;51.040;13.782;2022-12-07T00:04:48;1999.90;;;999.90;;
33505;SDS011;19843;51.040;13.782;2022-12-07T00:07:15;1999.90;;;999.90;;
33505;SDS011;19843;51.040;13.782;2022-12-07T00:09:43;1999.90;;;999.90;;
33505;SDS011;19843;51.040;13.782;2022-12-07T00:12:10;1999.90;;;999.90;;
33505;SDS011;19843;51.040;13.782;2022-12-07T00:14:38;1999.90;;;999.90;;
33505;SDS011;19843;51.040;13.782;2022-12-07T00:17:05;1999.90;;;999.90;;
33505;SDS011;19843;51.040;13.782;2022-12-07T00:19:34;1999.90;;;999.90;;
33505;SDS011;19843;51.040;13.782;2022-12-07T00:22:01;1999.90;;;999.90;;
33505;SDS011;19843;51.040;13.782;2022-12-07T00:24:29;1999.90;;;999.90;;
33505;SDS011;19843;51.040;13.782;2022-12-07T00:26:56;1999.90;;;999.90;;
33505;SDS011;19843;51.040;13.782;2022-12-07T00:29:24;1999.90;;;999.90;;
33505;SDS011;19843;51.040;13.782;2022-12-07T00:31:51;1999.90;;;999.90;;
33505;SDS011;19843;51.040;13.782;2022-12-07T00:34:20;1999.90;;;999.90;;
33505;SDS011;19843;51.040;13.782;2022-12-07T00:36:49;1999.90;;;999.90;;
33505;SDS011;19843;51.040;13.782;2022-12-07T00:39:17;76.20;;;71.55;;
33505;SDS011;19843;51.040;13.782;2022-12-07T00:41:44;560.10;;;306.33;;
33505;SDS011;19843;51.040;13.782;2022-12-07T00:44:12;1999.90;;;999.90;;
33505;SDS011;19843;51.040;13.782;2022-12-07T00:46:39;1999.90;;;999.90;;
33505;SDS011;19843;51.040;13.782;2022-12-07T00:49:07;86.05;;;80.70;;
33505;SDS011;19843;51.040;13.782;2022-12-07T00:51:35;1999.90;;;999.90;;
33505;SDS011;19843;51.040;13.782;2022-12-07T00:56:31;1999.90;;;999.90;;
33505;SDS011;19843;51.040;13.782;2022-12-07T00:59:03;79.65;;;74.97;;
33505;SDS011;19843;51.040;13.782;2022-12-07T01:01:32;78.78;;;73.95;;
33505;SDS011;19843;51.040;13.782;2022-12-07T01:04:01;86.72;;;80.97;;
33505;SDS011;19843;51.040;13.782;2022-12-07T01:06:29;85.55;;;80.35;;
33505;SDS011;19843;51.040;13.782;2022-12-07T01:08:57;94.72;;;88.40;;
33505;SDS011;19843;51.040;13.782;2022-12-07T01:11:27;86.57;;;81.55;;
33505;SDS011;19843;51.040;13.782;2022-12-07T01:13:57;87.80;;;82.28;;
33505;SDS011;19843;51.040;13.782;2022-12-07T01:16:33;87.63;;;82.03;;
33505;SDS011;19843;51.040;13.782;2022-12-07T01:19:01;563.33;;;309.40;;
33505;SDS011;19843;51.040;13.782;2022-12-07T01:21:31;94.20;;;87.55;;
33505;SDS011;19843;51.040;13.782;2022-12-07T01:24:01;81.93;;;76.63;;
33505;SDS011;19843;51.040;13.782;2022-12-07T01:26:31;82.07;;;76.90;;
33505;SDS011;19843;51.040;13.782;2022-12-07T01:28:58;104.15;;;97.68;;
33505;SDS011;19843;51.040;13.782;2022-12-07T01:31:27;96.45;;;90.75;;
33505;SDS011;19843;51.040;13.782;2022-12-07T01:36:23;95.90;;;90.40;;
33505;SDS011;19843;51.040;13.782;2022-12-07T01:38:53;95.72;;;90.00;;
33505;SDS011;19843;51.040;13.782;2022-12-07T01:41:23;108.63;;;101.68;;
33505;SDS011;19843;51.040;13.782;2022-12-07T01:44:10;118.35;;;110.97;;
33505;SDS011;19843;51.040;13.782;2022-12-07T01:46:42;100.63;;;94.57;;
33505;SDS011;19843;51.040;13.782;2022-12-07T01:49:18;103.53;;;96.85;;
33505;SDS011;19843;51.040;13.782;2022-12-07T01:51:50;107.63;;;101.28;;
33505;SDS011;19843;51.040;13.782;2022-12-07T01:54:22;105.68;;;99.10;;
33505;SDS011;19843;51.040;13.782;2022-12-07T01:56:50;133.65;;;125.97;;
33505;SDS011;19843;51.040;13.782;2022-12-07T01:59:23;103.55;;;97.28;;
33505;SDS011;19843;51.040;13.782;2022-12-07T02:01:52;97.10;;;91.13;;
33505;SDS011;19843;51.040;13.782;2022-12-07T02:04:22;104.07;;;97.97;;
33505;SDS011;19843;51.040;13.782;2022-12-07T02:06:50;103.45;;;97.50;;
33505;SDS011;19843;51.040;13.782;2022-12-07T02:09:18;1999.90;;;999.90;;
33505;SDS011;19843;51.040;13.782;2022-12-07T02:11:46;1999.90;;;999.90;;
33505;SDS011;19843;51.040;13.782;2022-12-07T02:14:14;1999.90;;;999.90;;
33505;SDS011;19843;51.040;13.782;2022-12-07T02:16:46;1999.90;;;999.90;;
33505;SDS011;19843;51.040;13.782;2022-12-07T02:25:30;1999.90;;;999.90;;
33505;SDS011;19843;51.040;13.782;2022-12-07T02:28:09;1999.90;;;999.90;;
33505;SDS011;19843;51.040;13.782;2022-12-07T02:30:46;1999.90;;;999.90;;
33505;SDS011;19843;51.040;13.782;2022-12-07T02:33:16;1999.90;;;999.90;;
33505;SDS011;19843;51.040;13.782;2022-12-07T02:35:51;1999.90;;;999.90;;
33505;SDS011;19843;51.040;13.782;2022-12-07T02:38:25;1999.90;;;999.90;;
33505;SDS011;19843;51.040;13.782;2022-12-07T02:40:57;1999.90;;;999.90;;
33505;SDS011;19843;51.040;13.782;2022-12-07T02:43:31;1999.90;;;999.90;;
33505;SDS011;19843;51.040;13.782;2022-12-07T02:46:05;1999.90;;;999.90;;
33505;SDS011;19843;51.040;13.782;2022-12-07T02:48:36;1999.90;;;999.90;;
33505;SDS011;19843;51.040;13.782;2022-12-07T02:51:06;1999.90;;;999.90;;
33505;SDS011;19843;51.040;13.782;2022-12-07T02:53:35;1999.90;;;999.90;;
33505;SDS011;19843;51.040;13.782;2022-12-07T02:56:06;1999.90;;;999.90;;
33505;SDS011;19843;51.040;13.782;2022-12-07T02:58:43;80.50;;;75.50;;
33505;SDS011;19843;51.040;13.782;2022-12-07T03:01:25;102.97;;;97.18;;
33505;SDS011;19843;51.040;13.782;2022-12-07T03:03:58;95.95;;;90.22;;
33505;SDS011;19843;51.040;13.782;2022-12-07T03:06:37;105.00;;;99.18;;
33505;SDS011;19843;51.040;13.782;2022-12-07T03:09:12;102.47;;;96.88;;
33505;SDS011;19843;51.040;13.782;2022-12-07T03:11:47;98.80;;;93.10;;
33505;SDS011;19843;51.040;13.782;2022-12-07T03:14:19;110.07;;;103.55;;
33505;SDS011;19843;51.040;13.782;2022-12-07T03:16:52;115.55;;;109.15;;
33505;SDS011;19843;51.040;13.782;2022-12-07T03:19:25;110.35;;;104.07;;
33505;SDS011;19843;51.040;13.782;2022-12-07T03:21:55;116.65;;;109.75;;
33505;SDS011;19843;51.040;13.782;2022-12-07T03:24:26;128.60;;;121.38;;
33505;SDS011;19843;51.040;13.782;2022-12-07T03:26:58;123.03;;;115.78;;
33505;SDS011;19843;51.040;13.782;2022-12-07T03:29:31;120.13;;;113.43;;
33505;SDS011;19843;51.040;13.782;2022-12-07T03:32:05;132.07;;;124.10;;
33505;SDS011;19843;51.040;13.782;2022-12-07T03:34:39;126.72;;;119.35;;
33505;SDS011;19843;51.040;13.782;2022-12-07T03:37:12;125.85;;;118.72;;
33505;SDS011;19843;51.040;13.782;2022-12-07T03:39:46;142.80;;;134.55;;
33505;SDS011;19843;51.040;13.782;2022-12-07T03:42:21;167.43;;;157.73;;
33505;SDS011;19843;51.040;13.782;2022-12-07T03:44:49;166.77;;;157.10;;
33505;SDS011;19843;51.040;13.782;2022-12-07T03:47:20;159.13;;;149.65;;
33505;SDS011;19843;51.040;13.782;2022-12-07T03:49:54;171.85;;;161.80;;
33505;SDS011;19843;51.040;13.782;2022-12-07T03:52:28;173.80;;;163.50;;
33505;SDS011;19843;51.040;13.782;2022-12-07T03:55:02;175.63;;;165.20;;
33505;SDS011;19843;51.040;13.782;2022-12-07T03:57:36;172.15;;;161.95;;
33505;SDS011;19843;51.040;13.782;2022-12-07T04:00:06;188.57;;;177.90;;
33505;SDS011;19843;51.040;13.782;2022-12-07T04:02:37;168.43;;;158.48;;
33505;SDS011;19843;51.040;13.782;2022-12-07T04:05:05;185.80;;;175.05;;
33505;SDS011;19843;51.040;13.782;2022-12-07T04:07:34;182.73;;;172.27;;
33505;SDS011;19843;51.040;13.782;2022-12-07T04:10:02;201.32;;;189.63;;
33505;SDS011;19843;51.040;13.782;2022-12-07T04:12:30;234.00;;;220.93;;
33505;SDS011;19843;51.040;13.782;2022-12-07T04:14:58;196.75;;;185.30;;
33505;SDS011;19843;51.040;13.782;2022-12-07T04:17:26;206.15;;;193.98;;
33505;SDS011;19843;51.040;13.782;2022-12-07T04:19:54;188.95;;;178.02;;
33505;SDS011;19843;51.040;13.782;2022-12-07T04:22:22;213.90;;;201.63;;
33505;SDS011;19843;51.040;13.782;2022-12-07T04:24:49;203.93;;;192.15;;
33505;SDS011;19843;51.040;13.782;2022-12-07T04:27:17;203.68;;;192.10;;
33505;SDS011;19843;51.040;13.782;2022-12-07T04:29:44;199.55;;;187.95;;
33505;SDS011;19843;51.040;13.782;2022-12-07T04:32:12;203.25;;;191.48;;
33505;SDS011;19843;51.040;13.782;2022-12-07T04:34:39;179.95;;;169.57;;
33505;SDS011;19843;51.040;13.782;2022-12-07T04:37:08;164.48;;;155.00;;
33505;SDS011;19843;51.040;13.782;2022-12-07T04:39:36;156.27;;;147.05;;
33505;SDS011;19843;51.040;13.782;2022-12-07T04:42:04;153.63;;;144.75;;
33505;SDS011;19843;51.040;13.782;2022-12-07T04:44:31;150.25;;;141.55;;
33505;SDS011;19843;51.040;13.782;2022-12-07T04:46:59;170.25;;;160.45;;
33505;SDS011;19843;51.040;13.782;2022-12-07T04:49:26;173.75;;;164.07;;
33505;SDS011;19843;51.040;13.782;2022-12-07T04:51:54;186.75;;;176.15;;
33505;SDS011;19843;51.040;13.782;2022-12-07T04:54:23;158.05;;;148.77;;
33505;SDS011;19843;51.040;13.782;2022-12-07T04:56:50;165.00;;;155.63;;
33505;SDS011;19843;51.040;13.782;2022-12-07T04:59:18;180.43;;;170.15;;
33505;SDS011;19843;51.040;13.782;2022-12-07T05:01:45;176.82;;;166.38;;
33505;SDS011;19843;51.040;13.782;2022-12-07T05:04:13;171.20;;;161.60;;
33505;SDS011;19843;51.040;13.782;2022-12-07T05:06:42;172.25;;;162.07;;
33505;SDS011;19843;51.040;13.782;2022-12-07T05:09:09;162.30;;;152.90;;
33505;SDS011;19843;51.040;13.782;2022-12-07T05:11:38;159.27;;;150.10;;
33505;SDS011;19843;51.040;13.782;2022-12-07T05:14:08;151.70;;;143.00;;
33505;SDS011;19843;51.040;13.782;2022-12-07T05:16:38;186.30;;;175.80;;
33505;SDS011;19843;51.040;13.782;2022-12-07T05:24:01;175.38;;;165.27;;
33505;SDS011;19843;51.040;13.782;2022-12-07T05:26:30;184.15;;;173.68;;
33505;SDS011;19843;51.040;13.782;2022-12-07T05:28:59;195.65;;;184.27;;
33505;SDS011;19843;51.040;13.782;2022-12-07T05:31:27;170.95;;;160.93;;
33505;SDS011;19843;51.040;13.782;2022-12-07T05:33:54;214.80;;;202.32;;
33505;SDS011;19843;51.040;13.782;2022-12-07T05:36:22;231.40;;;218.27;;
33505;SDS011;19843;51.040;13.782;2022-12-07T05:38:50;231.80;;;218.77;;
33505;SDS011;19843;51.040;13.782;2022-12-07T05:41:18;208.25;;;196.35;;
33505;SDS011;19843;51.040;13.782;2022-12-07T05:44:04;212.43;;;200.05;;
33505;SDS011;19843;51.040;13.782;2022-12-07T05:46:32;188.18;;;177.55;;
33505;SDS011;19843;51.040;13.782;2022-12-07T05:51:28;144.93;;;136.65;;
33505;SDS011;19843;51.040;13.782;2022-12-07T05:53:55;166.00;;;156.55;;
33505;SDS011;19843;51.040;13.782;2022-12-07T05:56:23;164.45;;;155.00;;
33505;SDS011;19843;51.040;13.782;2022-12-07T05:58:50;164.27;;;154.70;;
33505;SDS011;19843;51.040;13.782;2022-12-07T06:01:52;199.20;;;188.07;;
33505;SDS011;19843;51.040;13.782;2022-12-07T06:04:21;170.32;;;160.43;;
33505;SDS011;19843;51.040;13.782;2022-12-07T06:06:50;169.18;;;159.65;;
33505;SDS011;19843;51.040;13.782;2022-12-07T06:09:18;179.95;;;169.77;;
33505;SDS011;19843;51.040;13.782;2022-12-07T06:11:46;180.18;;;170.07;;
33505;SDS011;19843;51.040;13.782;2022-12-07T06:14:32;168.38;;;158.98;;
33505;SDS011;19843;51.040;13.782;2022-12-07T06:17:01;155.43;;;146.68;;
33505;SDS011;19843;51.040;13.782;2022-12-07T06:19:28;162.05;;;153.23;;
33505;SDS011;19843;51.040;13.782;2022-12-07T06:21:56;174.43;;;164.90;;
33505;SDS011;19843;51.040;13.782;2022-12-07T06:24:24;188.82;;;178.73;;
33505;SDS011;19843;51.040;13.782;2022-12-07T06:26:52;198.38;;;187.63;;
33505;SDS011;19843;51.040;13.782;2022-12-07T06:29:19;170.20;;;160.68;;
33505;SDS011;19843;51.040;13.782;2022-12-07T06:31:48;165.57;;;156.38;;
33505;SDS011;19843;51.040;13.782;2022-12-07T06:34:17;156.05;;;147.02;;
33505;SDS011;19843;51.040;13.782;2022-12-07T06:36:46;194.35;;;183.80;;
33505;SDS011;19843;51.040;13.782;2022-12-07T06:39:17;161.80;;;152.23;;
33505;SDS011;19843;51.040;13.782;2022-12-07T06:41:44;174.40;;;164.55;;
33505;SDS011;19843;51.040;13.782;2022-12-07T06:44:12;205.32;;;193.95;;
33505;SDS011;19843;51.040;13.782;2022-12-07T06:46:40;177.30;;;167.50;;
33505;SDS011;19843;51.040;13.782;2022-12-07T06:49:07;148.02;;;139.65;;
33505;SDS011;19843;51.040;13.782;2022-12-07T06:51:36;207.20;;;195.77;;
33505;SDS011;19843;51.040;13.782;2022-12-07T06:54:07;149.85;;;141.45;;
33505;SDS011;19843;51.040;13.782;2022-12-07T06:59:02;134.70;;;127.15;;
33505;SDS011;19843;51.040;13.782;2022-12-07T07:01:31;176.82;;;166.50;;
33505;SDS011;19843;51.040;13.782;2022-12-07T07:04:00;48.05;;;45.42;;
33505;SDS011;19843;51.040;13.782;2022-12-07T07:06:28;45.20;;;42.63;;
33505;SDS011;19843;51.040;13.782;2022-12-07T07:08:56;46.85;;;44.05;;
33505;SDS011;19843;51.040;13.782;2022-12-07T07:11:24;47.40;;;44.67;;
33505;SDS011;19843;51.040;13.782;2022-12-07T07:13:52;1999.90;;;999.90;;
33505;SDS011;19843;51.040;13.782;2022-12-07T07:16:19;1999.90;;;999.90;;
33505;SDS011;19843;51.040;13.782;2022-12-07T07:18:47;1999.90;;;999.90;;
33505;SDS011;19843;51.040;13.782;2022-12-07T07:21:15;1999.90;;;999.90;;
33505;SDS011;19843;51.040;13.782;2022-12-07T07:23:42;1999.90;;;999.90;;
33505;SDS011;19843;51.040;13.782;2022-12-07T07:26:11;1999.90;;;999.90;;
33505;SDS011;19843;51.040;13.782;2022-12-07T07:28:45;1999.90;;;999.90;;
33505;SDS011;19843;51.040;13.782;2022-12-07T07:31:12;1999.90;;;999.90;;
33505;SDS011;19843;51.040;13.782;2022-12-07T07:33:40;1999.90;;;999.90;;
33505;SDS011;19843;51.040;13.782;2022-12-07T07:36:07;1999.90;;;999.90;;
33505;SDS011;19843;51.040;13.782;2022-12-07T07:38:35;1999.90;;;999.90;;
33505;SDS011;19843;51.040;13.782;2022-12-07T07:41:03;1999.90;;;999.90;;
33505;SDS011;19843;51.040;13.782;2022-12-07T07:43:32;1999.90;;;999.90;;
33505;SDS011;19843;51.040;13.782;2022-12-07T07:45:59;1999.90;;;999.90;;
33505;SDS011;19843;51.040;13.782;2022-12-07T07:48:27;1999.90;;;999.90;;
33505;SDS011;19843;51.040;13.782;2022-12-07T07:50:54;1999.90;;;999.90;;
33505;SDS011;19843;51.040;13.782;2022-12-07T07:53:22;1999.90;;;999.90;;
33505;SDS011;19843;51.040;13.782;2022-12-07T07:55:50;1999.90;;;999.90;;
33505;SDS011;19843;51.040;13.782;2022-12-07T07:58:19;1999.90;;;999.90;;
33505;SDS011;19843;51.040;13.782;2022-12-07T08:00:48;1999.90;;;999.90;;
33505;SDS011;19843;51.040;13.782;2022-12-07T08:03:16;1999.90;;;999.90;;
33505;SDS011;19843;51.040;13.782;2022-12-07T08:05:43;1999.90;;;999.90;;
33505;SDS011;19843;51.040;13.782;2022-12-07T08:08:11;1999.90;;;999.90;;
33505;SDS011;19843;51.040;13.782;2022-12-07T08:10:38;1999.90;;;999.90;;
33505;SDS011;19843;51.040;13.782;2022-12-07T08:13:06;1999.90;;;999.90;;
33505;SDS011;19843;51.040;13.782;2022-12-07T08:15:40;1999.90;;;999.90;;
33505;SDS011;19843;51.040;13.782;2022-12-07T08:18:11;1999.90;;;999.90;;
33505;SDS011;19843;51.040;13.782;2022-12-07T08:20:41;1999.90;;;999.90;;
33505;SDS011;19843;51.040;13.782;2022-12-07T08:23:11;1999.90;;;999.90;;
33505;SDS011;19843;51.040;13.782;2022-12-07T08:25:39;1999.90;;;999.90;;
33505;SDS011;19843;51.040;13.782;2022-12-07T08:28:07;1999.90;;;999.90;;
33505;SDS011;19843;51.040;13.782;2022-12-07T08:30:35;1999.90;;;999.90;;
33505;SDS011;19843;51.040;13.782;2022-12-07T08:33:03;544.55;;;291.85;;
33505;SDS011;19843;51.040;13.782;2022-12-07T08:35:33;52.50;;;48.75;;
33505;SDS011;19843;51.040;13.782;2022-12-07T08:38:01;48.97;;;45.88;;
33505;SDS011;19843;51.040;13.782;2022-12-07T08:40:29;47.97;;;44.75;;
33505;SDS011;19843;51.040;13.782;2022-12-07T08:42:57;46.10;;;42.92;;
33505;SDS011;19843;51.040;13.782;2022-12-07T08:45:24;47.55;;;44.22;;
33505;SDS011;19843;51.040;13.782;2022-12-07T08:47:54;48.97;;;45.92;;
33505;SDS011;19843;51.040;13.782;2022-12-07T08:50:25;50.22;;;47.05;;
33505;SDS011;19843;51.040;13.782;2022-12-07T08:52:56;46.28;;;43.28;;
33505;SDS011;19843;51.040;13.782;2022-12-07T08:55:25;45.33;;;42.47;;
33505;SDS011;19843;51.040;13.782;2022-12-07T08:57:53;50.58;;;47.28;;
33505;SDS011;19843;51.040;13.782;2022-12-07T09:00:22;43.78;;;41.00;;
33505;SDS011;19843;51.040;13.782;2022-12-07T09:02:49;51.85;;;48.13;;
33505;SDS011;19843;51.040;13.782;2022-12-07T09:05:17;48.17;;;45.05;;
33505;SDS011;19843;51.040;13.782;2022-12-07T09:07:45;45.95;;;42.92;;
33505;SDS011;19843;51.040;13.782;2022-12-07T09:10:17;46.35;;;43.50;;
33505;SDS011;19843;51.040;13.782;2022-12-07T09:12:44;51.42;;;48.22;;
33505;SDS011;19843;51.040;13.782;2022-12-07T09:15:12;49.38;;;45.78;;
33505;SDS011;19843;51.040;13.782;2022-12-07T09:17:40;46.38;;;42.83;;
33505;SDS011;19843;51.040;13.782;2022-12-07T09:20:07;40.97;;;38.53;;
33505;SDS011;19843;51.040;13.782;2022-12-07T09:22:35;44.75;;;41.55;;
33505;SDS011;19843;51.040;13.782;2022-12-07T09:25:03;44.22;;;41.53;;
33505;SDS011;19843;51.040;13.782;2022-12-07T09:27:33;40.00;;;37.55;;
33505;SDS011;19843;51.040;13.782;2022-12-07T09:30:00;43.92;;;41.03;;
33505;SDS011;19843;51.040;13.782;2022-12-07T09:34:56;42.22;;;39.72;;
33505;SDS011;19843;51.040;13.782;2022-12-07T09:37:23;39.88;;;36.45;;
33505;SDS011;19843;51.040;13.782;2022-12-07T09:39:51;37.70;;;35.30;;
33505;SDS011;19843;51.040;13.782;2022-12-07T09:42:24;41.17;;;38.25;;
33505;SDS011;19843;51.040;13.782;2022-12-07T09:44:57;37.25;;;34.78;;
33505;SDS011;19843;51.040;13.782;2022-12-07T09:47:26;39.67;;;37.22;;
33505;SDS011;19843;51.040;13.782;2022-12-07T09:49:55;39.95;;;36.85;;
33505;SDS011;19843;51.040;13.782;2022-12-07T09:52:30;38.75;;;36.13;;
33505;SDS011;19843;51.040;13.782;2022-12-07T09:55:08;38.80;;;35.72;;
33505;SDS011;19843;51.040;13.782;2022-12-07T09:57:38;36.15;;;33.95;;
33505;SDS011;19843;51.040;13.782;2022-12-07T10:00:10;33.72;;;31.67;;
33505;SDS011;19843;51.040;13.782;2022-12-07T10:02:42;36.05;;;33.53;;
33505;SDS011;19843;51.040;13.782;2022-12-07T10:05:12;32.30;;;29.92;;
33505;SDS011;19843;51.040;13.782;2022-12-07T10:07:49;33.22;;;31.05;;
33505;SDS011;19843;51.040;13.782;2022-12-07T10:10:17;32.38;;;30.08;;
33505;SDS011;19843;51.040;13.782;2022-12-07T10:12:57;36.33;;;32.78;;
33505;SDS011;19843;51.040;13.782;2022-12-07T10:15:44;32.25;;;30.45;;
33505;SDS011;19843;51.040;13.782;2022-12-07T10:18:16;34.33;;;32.30;;
33505;SDS011;19843;51.040;13.782;2022-12-07T10:20:59;30.23;;;28.30;;
33505;SDS011;19843;51.040;13.782;2022-12-07T10:25:57;32.17;;;30.40;;
33505;SDS011;19843;51.040;13.782;2022-12-07T10:28:27;32.55;;;30.60;;
33505;SDS011;19843;51.040;13.782;2022-12-07T10:31:15;33.20;;;31.23;;
33505;SDS011;19843;51.040;13.782;2022-12-07T10:33:49;33.92;;;31.45;;
33505;SDS011;19843;51.040;13.782;2022-12-07T10:36:20;33.40;;;31.38;;
33505;SDS011;19843;51.040;13.782;2022-12-07T10:38:51;35.00;;;32.92;;
33505;SDS011;19843;51.040;13.782;2022-12-07T10:41:20;35.05;;;32.75;;
33505;SDS011;19843;51.040;13.782;2022-12-07T10:43:51;34.50;;;32.53;;
33505;SDS011;19843;51.040;13.782;2022-12-07T10:49:45;34.80;;;32.67;;
33505;SDS011;19843;51.040;13.782;2022-12-07T10:52:45;35.83;;;33.47;;
33505;SDS011;19843;51.040;13.782;2022-12-07T10:55:23;37.10;;;34.78;;
33505;SDS011;19843;51.040;13.782;2022-12-07T11:00:39;35.33;;;33.17;;
33505;SDS011;19843;51.040;13.782;2022-12-07T11:06:14;35.33;;;33.35;;
33505;SDS011;19843;51.040;13.782;2022-12-07T11:08:57;34.00;;;31.83;;
33505;SDS011;19843;51.040;13.782;2022-12-07T11:11:38;37.15;;;35.10;;
33505;SDS011;19843;51.040;13.782;2022-12-07T11:14:15;40.83;;;38.28;;
33505;SDS011;19843;51.040;13.782;2022-12-07T11:16:55;41.85;;;39.20;;
33505;SDS011;19843;51.040;13.782;2022-12-07T11:22:23;34.28;;;32.13;;
33505;SDS011;19843;51.040;13.782;2022-12-07T11:25:01;33.27;;;31.40;;
33505;SDS011;19843;51.040;13.782;2022-12-07T11:27:43;33.13;;;31.27;;
33505;SDS011;19843;51.040;13.782;2022-12-07T11:30:16;35.13;;;32.90;;
33505;SDS011;19843;51.040;13.782;2022-12-07T11:32:59;34.78;;;32.67;;
33505;SDS011;19843;51.040;13.782;2022-12-07T11:35:40;34.60;;;32.60;;
33505;SDS011;19843;51.040;13.782;2022-12-07T11:38:21;35.03;;;32.85;;
33505;SDS011;19843;51.040;13.782;2022-12-07T11:40:55;40.15;;;37.40;;
33505;SDS011;19843;51.040;13.782;2022-12-07T11:43:49;47.15;;;44.30;;
33505;SDS011;19843;51.040;13.782;2022-12-07T11:46:22;39.00;;;36.80;;
33505;SDS011;19843;51.040;13.782;2022-12-07T11:48:54;40.83;;;38.38;;
33505;SDS011;19843;51.040;13.782;2022-12-07T11:51:31;38.15;;;35.95;;
33505;SDS011;19843;51.040;13.782;2022-12-07T11:54:03;44.13;;;41.13;;
33505;SDS011;19843;51.040;13.782;2022-12-07T11:56:39;41.83;;;39.08;;
33505;SDS011;19843;51.040;13.782;2022-12-07T11:59:08;45.63;;;42.90;;
33505;SDS011;19843;51.040;13.782;2022-12-07T12:01:44;43.00;;;39.92;;
33505;SDS011;19843;51.040;13.782;2022-12-07T12:04:27;41.53;;;38.97;;
33505;SDS011;19843;51.040;13.782;2022-12-07T12:07:01;45.15;;;42.25;;
33505;SDS011;19843;51.040;13.782;2022-12-07T12:09:53;43.30;;;40.30;;
33505;SDS011;19843;51.040;13.782;2022-12-07T12:15:41;42.65;;;38.90;;
33505;SDS011;19843;51.040;13.782;2022-12-07T12:18:26;42.22;;;39.35;;
33505;SDS011;19843;51.040;13.782;2022-12-07T12:21:06;39.92;;;37.45;;
33505;SDS011;19843;51.040;13.782;2022-12-07T12:23:39;40.22;;;37.63;;
33505;SDS011;19843;51.040;13.782;2022-12-07T12:26:14;39.45;;;36.58;;
33505;SDS011;19843;51.040;13.782;2022-12-07T12:28:49;41.22;;;38.70;;
33505;SDS011;19843;51.040;13.782;2022-12-07T12:31:36;38.85;;;36.38;;
33505;SDS011;19843;51.040;13.782;2022-12-07T12:36:57;39.22;;;36.85;;
33505;SDS011;19843;51.040;13.782;2022-12-07T12:39:26;40.97;;;38.45;;
33505;SDS011;19843;51.040;13.782;2022-12-07T12:41:57;42.80;;;39.67;;
33505;SDS011;19843;51.040;13.782;2022-12-07T12:44:38;42.42;;;39.75;;
33505;SDS011;19843;51.040;13.782;2022-12-07T12:50:19;41.75;;;39.63;;
33505;SDS011;19843;51.040;13.782;2022-12-07T12:52:52;41.40;;;39.25;;
33505;SDS011;19843;51.040;13.782;2022-12-07T12:55:42;36.13;;;34.20;;
33505;SDS011;19843;51.040;13.782;2022-12-07T12:58:30;41.35;;;39.25;;
33505;SDS011;19843;51.040;13.782;2022-12-07T13:04:18;44.83;;;42.35;;
33505;SDS011;19843;51.040;13.782;2022-12-07T13:06:51;49.85;;;47.15;;
33505;SDS011;19843;51.040;13.782;2022-12-07T13:09:20;44.92;;;42.55;;
33505;SDS011;19843;51.040;13.782;2022-12-07T13:11:54;45.03;;;42.63;;
33505;SDS011;19843;51.040;13.782;2022-12-07T13:20:44;1999.90;;;999.90;;
33505;SDS011;19843;51.040;13.782;2022-12-07T13:23:14;1999.90;;;999.90;;
33505;SDS011;19843;51.040;13.782;2022-12-07T13:25:46;1999.90;;;999.90;;
33505;SDS011;19843;51.040;13.782;2022-12-07T13:28:19;1999.90;;;999.90;;
33505;SDS011;19843;51.040;13.782;2022-12-07T13:31:00;1999.90;;;999.90;;
33505;SDS011;19843;51.040;13.782;2022-12-07T13:33:36;56.35;;;53.42;;
33505;SDS011;19843;51.040;13.782;2022-12-07T13:36:04;1999.90;;;999.90;;
33505;SDS011;19843;51.040;13.782;2022-12-07T13:38:40;1999.90;;;999.90;;
33505;SDS011;19843;51.040;13.782;2022-12-07T13:41:17;1999.90;;;999.90;;
33505;SDS011;19843;51.040;13.782;2022-12-07T13:43:49;1999.90;;;999.90;;
33505;SDS011;19843;51.040;13.782;2022-12-07T13:46:20;1999.90;;;999.90;;
33505;SDS011;19843;51.040;13.782;2022-12-07T13:48:54;1999.90;;;999.90;;
33505;SDS011;19843;51.040;13.782;2022-12-07T13:51:23;1999.90;;;999.90;;
33505;SDS011;19843;51.040;13.782;2022-12-07T13:53:53;1999.90;;;999.90;;
33505;SDS011;19843;51.040;13.782;2022-12-07T13:56:22;1999.90;;;999.90;;
33505;SDS011;19843;51.040;13.782;2022-12-07T13:59:00;1999.90;;;999.90;;
33505;SDS011;19843;51.040;13.782;2022-12-07T14:01:28;1999.90;;;999.90;;
33505;SDS011;19843;51.040;13.782;2022-12-07T14:06:47;1999.90;;;999.90;;
33505;SDS011;19843;51.040;13.782;2022-12-07T14:09:17;1999.90;;;999.90;;
33505;SDS011;19843;51.040;13.782;2022-12-07T14:11:46;1999.90;;;999.90;;
33505;SDS011;19843;51.040;13.782;2022-12-07T14:14:18;1999.90;;;999.90;;
33505;SDS011;19843;51.040;13.782;2022-12-07T14:16:59;1999.90;;;999.90;;
33505;SDS011;19843;51.040;13.782;2022-12-07T14:19:42;1999.90;;;999.90;;
33505;SDS011;19843;51.040;13.782;2022-12-07T14:22:25;1999.90;;;999.90;;
33505;SDS011;19843;51.040;13.782;2022-12-07T14:24:58;62.88;;;59.38;;
33505;SDS011;19843;51.040;13.782;2022-12-07T14:30:24;60.63;;;57.17;;
33505;SDS011;19843;51.040;13.782;2022-12-07T14:32:54;50.65;;;47.85;;
33505;SDS011;19843;51.040;13.782;2022-12-07T14:35:24;51.95;;;49.13;;
33505;SDS011;19843;51.040;13.782;2022-12-07T14:40:20;48.72;;;45.72;;
33505;SDS011;19843;51.040;13.782;2022-12-07T14:42:52;48.88;;;45.85;;
33505;SDS011;19843;51.040;13.782;2022-12-07T14:45:24;43.05;;;40.58;;
33505;SDS011;19843;51.040;13.782;2022-12-07T14:47:52;42.47;;;40.20;;
33505;SDS011;19843;51.040;13.782;2022-12-07T14:50:40;44.40;;;41.63;;
33505;SDS011;19843;51.040;13.782;2022-12-07T14:53:31;40.22;;;37.38;;
33505;SDS011;19843;51.040;13.782;2022-12-07T14:56:04;39.88;;;37.40;;
33505;SDS011;19843;51.040;13.782;2022-12-07T14:58:32;45.40;;;42.42;;
33505;SDS011;19843;51.040;13.782;2022-12-07T15:01:01;41.55;;;39.30;;
33505;SDS011;19843;51.040;13.782;2022-12-07T15:03:29;41.50;;;38.88;;
33505;SDS011;19843;51.040;13.782;2022-12-07T15:05:57;38.95;;;36.75;;
33505;SDS011;19843;51.040;13.782;2022-12-07T15:08:24;41.10;;;38.88;;
33505;SDS011;19843;51.040;13.782;2022-12-07T15:10:52;40.33;;;37.83;;
33505;SDS011;19843;51.040;13.782;2022-12-07T15:13:20;38.92;;;36.58;;
33505;SDS011;19843;51.040;13.782;2022-12-07T15:16:12;39.35;;;37.15;;
33505;SDS011;19843;51.040;13.782;2022-12-07T15:18:43;39.20;;;36.90;;
33505;SDS011;19843;51.040;13.782;2022-12-07T15:21:31;37.70;;;35.20;;